createdAt,value
2024-02-10T00:00:34.980Z,20.47
2024-02-10T00:03:01.413Z,20.48
2024-02-10T00:05:27.953Z,20.48
2024-02-10T00:07:54.459Z,20.49
2024-02-10T00:10:20.949Z,20.49
2024-02-10T00:12:47.406Z,20.50
2024-02-10T00:15:13.853Z,20.50
2024-02-10T00:17:40.320Z,20.51
2024-02-10T00:20:06.768Z,20.52
2024-02-10T00:22:33.291Z,20.52
2024-02-10T00:24:59.724Z,20.52
2024-02-10T00:27:26.169Z,20.52
2024-02-10T00:29:52.585Z,20.51
2024-02-10T00:32:19.099Z,20.52
2024-02-10T00:34:45.549Z,20.52
2024-02-10T00:37:12.084Z,20.53
2024-02-10T00:39:38.555Z,20.53
2024-02-10T00:42:05.009Z,20.52
2024-02-10T00:44:31.448Z,20.53
2024-02-10T00:46:57.899Z,20.53
2024-02-10T00:49:24.379Z,20.53
2024-02-10T00:51:50.827Z,20.54
2024-02-10T00:54:17.225Z,20.54
2024-02-10T00:56:43.663Z,20.55
2024-02-10T00:59:10.079Z,20.55
2024-02-10T01:01:36.518Z,20.57
2024-02-10T01:04:03.044Z,20.59
2024-02-10T01:06:29.495Z,20.59
2024-02-10T01:08:55.937Z,20.61
2024-02-10T01:11:22.401Z,20.59
2024-02-10T01:13:48.909Z,20.59
2024-02-10T01:16:15.473Z,20.60
2024-02-10T01:18:42.027Z,20.60
2024-02-10T01:21:08.884Z,20.59
2024-02-10T01:23:35.352Z,20.60
2024-02-10T01:26:01.861Z,20.61
2024-02-10T01:28:28.351Z,20.60
2024-02-10T01:30:54.768Z,20.60
2024-02-10T01:33:21.298Z,20.59
2024-02-10T01:35:47.832Z,20.61
2024-02-10T01:38:14.242Z,20.61
2024-02-10T01:40:40.691Z,20.61
2024-02-10T01:43:07.130Z,20.61
2024-02-10T01:45:33.577Z,20.62
2024-02-10T01:48:00.059Z,20.62
2024-02-10T01:50:26.543Z,20.64
2024-02-10T01:52:53.030Z,20.64
2024-02-10T01:55:19.552Z,20.65
2024-02-10T01:57:45.987Z,20.65
2024-02-10T02:00:12.432Z,20.67
2024-02-10T02:02:38.866Z,20.66
2024-02-10T02:05:05.299Z,20.66
2024-02-10T02:07:31.904Z,20.66
2024-02-10T02:09:58.442Z,20.66
2024-02-10T02:12:24.889Z,20.67
2024-02-10T02:14:51.340Z,20.66
2024-02-10T02:17:17.785Z,20.67
2024-02-10T02:19:44.259Z,20.67
2024-02-10T02:22:10.745Z,20.66
2024-02-10T02:24:37.158Z,20.67
2024-02-10T02:27:03.584Z,20.69
2024-02-10T02:29:30.050Z,20.67
2024-02-10T02:31:56.521Z,20.68
2024-02-10T02:34:22.984Z,20.70
2024-02-10T02:36:49.436Z,20.71
2024-02-10T02:39:15.886Z,20.73
2024-02-10T02:41:42.329Z,20.73
2024-02-10T02:44:08.767Z,20.73
2024-02-10T02:46:35.207Z,20.72
2024-02-10T02:49:01.702Z,20.72
2024-02-10T02:51:28.157Z,20.72
2024-02-10T02:53:54.615Z,20.73
2024-02-10T02:56:21.049Z,20.73
2024-02-10T02:58:47.504Z,20.72
2024-02-10T03:01:14.110Z,20.71
2024-02-10T03:03:40.648Z,20.72
2024-02-10T03:06:07.155Z,20.71
2024-02-10T03:08:33.581Z,20.72
2024-02-10T03:11:00.088Z,20.72
2024-02-10T03:13:26.698Z,20.72
2024-02-10T03:15:53.148Z,20.72
2024-02-10T03:18:19.751Z,20.73
2024-02-10T03:20:46.289Z,20.73
2024-02-10T03:23:12.713Z,20.74
2024-02-10T03:25:39.145Z,20.73
2024-02-10T03:28:05.629Z,20.74
2024-02-10T03:30:32.086Z,20.75
2024-02-10T03:32:58.554Z,20.75
2024-02-10T03:35:25.222Z,20.75
2024-02-10T03:37:51.774Z,20.75
2024-02-10T03:40:18.226Z,20.75
2024-02-10T03:42:44.678Z,20.75
2024-02-10T03:45:11.111Z,20.74
2024-02-10T03:47:37.588Z,20.74
2024-02-10T03:50:04.110Z,20.74
2024-02-10T03:52:30.592Z,20.73
2024-02-10T03:54:57.197Z,20.73
2024-02-10T03:57:23.725Z,20.74
2024-02-10T03:59:50.213Z,20.74
2024-02-10T04:02:16.646Z,20.74
2024-02-10T04:04:43.144Z,20.75
2024-02-10T04:07:10.891Z,20.76
2024-02-10T04:09:37.318Z,20.77
2024-02-10T04:12:03.752Z,20.76
2024-02-10T04:14:30.166Z,20.78
2024-02-10T04:16:56.651Z,20.71
2024-02-10T04:19:23.337Z,20.75
2024-02-10T04:21:49.817Z,20.75
2024-02-10T04:24:16.237Z,20.75
2024-02-10T04:26:42.651Z,20.68
2024-02-10T04:29:09.080Z,20.68
2024-02-10T04:31:35.556Z,20.73
2024-02-10T04:34:02.087Z,20.67
2024-02-10T04:36:28.548Z,20.67
2024-02-10T04:38:54.983Z,20.70
2024-02-10T04:41:21.407Z,20.67
2024-02-10T04:43:47.911Z,20.67
2024-02-10T04:46:14.449Z,20.68
2024-02-10T04:48:40.915Z,20.68
2024-02-10T04:51:07.355Z,20.70
2024-02-10T04:53:33.801Z,20.70
2024-02-10T04:56:00.367Z,20.71
2024-02-10T04:58:26.863Z,20.73
2024-02-10T05:00:53.375Z,20.76
2024-02-10T05:03:19.870Z,20.71
2024-02-10T05:05:46.357Z,20.77
2024-02-10T05:08:12.808Z,20.74
2024-02-10T05:10:39.275Z,20.73
2024-02-10T05:13:05.754Z,20.71
2024-02-10T05:15:32.212Z,20.79
2024-02-10T05:17:58.704Z,20.73
2024-02-10T05:20:25.348Z,20.72
2024-02-10T05:22:52.175Z,20.79
2024-02-10T05:25:18.791Z,20.79
2024-02-10T05:27:45.249Z,20.80
2024-02-10T05:30:11.671Z,20.79
2024-02-10T05:32:38.142Z,20.76
2024-02-10T05:35:04.578Z,20.74
2024-02-10T05:37:31.063Z,20.75
2024-02-10T05:39:57.485Z,20.75
2024-02-10T05:42:23.879Z,20.75
2024-02-10T05:44:50.354Z,20.76
2024-02-10T05:47:16.782Z,20.77
2024-02-10T05:49:43.211Z,20.77
2024-02-10T05:52:09.654Z,20.78
2024-02-10T05:54:36.040Z,20.78
2024-02-10T05:57:02.479Z,20.78
2024-02-10T05:59:28.933Z,20.77
2024-02-10T06:01:55.452Z,20.76
2024-02-10T06:04:21.927Z,20.77
2024-02-10T06:06:48.416Z,20.77
2024-02-10T06:09:14.881Z,20.75
2024-02-10T06:11:41.314Z,20.76
2024-02-10T06:14:07.780Z,20.76
2024-02-10T06:16:34.252Z,20.77
2024-02-10T06:19:00.692Z,20.76
2024-02-10T06:21:27.183Z,20.76
2024-02-10T06:23:53.652Z,20.77
2024-02-10T06:26:20.145Z,20.77
2024-02-10T06:28:46.682Z,20.79
2024-02-10T06:31:13.110Z,20.77
2024-02-10T06:33:39.532Z,20.86
2024-02-10T06:36:05.970Z,20.81
2024-02-10T06:38:32.362Z,20.80
2024-02-10T06:40:58.799Z,20.80
2024-02-10T06:43:25.265Z,20.79
2024-02-10T06:45:51.698Z,20.79
2024-02-10T06:48:18.193Z,20.80
2024-02-10T06:50:46.776Z,20.79
2024-02-10T06:53:13.581Z,20.80
2024-02-10T06:55:40.079Z,20.78
2024-02-10T06:58:06.552Z,20.79
2024-02-10T07:00:32.950Z,20.80
2024-02-10T07:02:59.384Z,20.81
2024-02-10T07:05:25.915Z,20.80
2024-02-10T07:07:52.417Z,20.79
2024-02-10T07:10:19.485Z,20.81
2024-02-10T07:12:46.017Z,20.82
2024-02-10T07:15:12.438Z,20.83
2024-02-10T07:17:38.908Z,20.84
2024-02-10T07:20:05.353Z,20.85
2024-02-10T07:22:31.793Z,20.84
2024-02-10T07:24:58.273Z,20.85
2024-02-10T07:27:24.691Z,20.85
2024-02-10T07:29:51.096Z,20.86
2024-02-10T07:32:17.519Z,20.86
2024-02-10T07:34:44.054Z,20.88
2024-02-10T07:37:10.493Z,20.93
2024-02-10T07:39:36.899Z,20.89
2024-02-10T07:42:03.363Z,20.88
2024-02-10T07:44:29.793Z,20.89
2024-02-10T07:46:56.265Z,20.88
2024-02-10T07:49:22.815Z,20.90
2024-02-10T07:51:49.369Z,20.92
2024-02-10T07:54:15.787Z,20.92
2024-02-10T07:56:42.242Z,20.93
2024-02-10T07:59:10.723Z,20.94
2024-02-10T08:01:37.409Z,20.97
2024-02-10T08:04:03.973Z,20.98
2024-02-10T08:06:30.475Z,20.99
2024-02-10T08:08:56.904Z,21.06
2024-02-10T08:11:23.350Z,21.01
2024-02-10T08:13:49.788Z,21.01
2024-02-10T08:16:16.300Z,21.01
2024-02-10T08:18:42.859Z,21.09
2024-02-10T08:21:09.275Z,21.14
2024-02-10T08:23:35.716Z,21.13
2024-02-10T08:26:02.238Z,21.16
2024-02-10T08:28:28.681Z,21.18
2024-02-10T08:30:55.157Z,21.18
2024-02-10T08:33:21.753Z,21.22
2024-02-10T08:35:48.234Z,21.24
2024-02-10T08:38:14.700Z,21.26
2024-02-10T08:40:41.118Z,21.28
2024-02-10T08:43:07.536Z,21.29
2024-02-10T08:45:33.956Z,21.31
2024-02-10T08:48:00.503Z,21.35
2024-02-10T08:50:26.985Z,21.38
2024-02-10T08:52:53.495Z,21.43
2024-02-10T08:55:19.987Z,21.48
2024-02-10T08:57:46.473Z,21.51
2024-02-10T09:00:12.934Z,21.52
2024-02-10T09:02:39.402Z,21.54
2024-02-10T09:05:05.956Z,21.57
2024-02-10T09:07:32.477Z,21.61
2024-02-10T09:09:58.912Z,21.66
2024-02-10T09:12:25.334Z,21.68
2024-02-10T09:14:51.759Z,21.70
2024-02-10T09:17:18.196Z,21.74
2024-02-10T09:19:44.679Z,21.77
2024-02-10T09:22:11.427Z,21.83
2024-02-10T09:24:38.029Z,21.89
2024-02-10T09:27:04.458Z,21.92
2024-02-10T09:29:30.943Z,21.95
2024-02-10T09:31:57.372Z,22.00
2024-02-10T09:34:24.014Z,22.06
2024-02-10T09:36:50.555Z,22.10
2024-02-10T09:39:17.001Z,22.15
2024-02-10T09:41:43.446Z,22.19
2024-02-10T09:44:09.911Z,22.16
2024-02-10T09:46:36.452Z,22.19
2024-02-10T09:49:02.965Z,22.23
2024-02-10T09:51:29.395Z,22.29
2024-02-10T09:53:55.839Z,22.32
2024-02-10T09:56:22.323Z,22.38
2024-02-10T09:58:48.865Z,22.42
2024-02-10T10:01:15.384Z,22.46
2024-02-10T10:03:41.930Z,22.50
2024-02-10T10:06:08.496Z,22.54
2024-02-10T10:08:34.936Z,22.59
2024-02-10T10:11:01.781Z,22.63
2024-02-10T10:13:28.437Z,22.70
2024-02-10T10:15:54.915Z,22.75
2024-02-10T10:18:21.513Z,22.82
2024-02-10T10:20:48.097Z,22.88
2024-02-10T10:23:14.550Z,22.93
2024-02-10T10:25:40.958Z,23.05
2024-02-10T10:28:07.409Z,23.12
2024-02-10T10:30:33.852Z,23.19
2024-02-10T10:33:00.392Z,23.23
2024-02-10T10:35:26.911Z,23.29
2024-02-10T10:37:53.347Z,23.28
2024-02-10T10:40:19.870Z,23.32
2024-02-10T10:42:46.323Z,23.35
2024-02-10T10:45:12.716Z,23.45
2024-02-10T10:47:39.241Z,23.46
2024-02-10T10:50:05.809Z,23.50
2024-02-10T10:52:32.437Z,23.55
2024-02-10T10:54:58.897Z,23.61
2024-02-10T10:57:25.330Z,23.67
2024-02-10T10:59:51.796Z,23.73
2024-02-10T11:02:24.141Z,23.79
2024-02-10T11:04:56.519Z,23.83
2024-02-10T11:07:23.013Z,23.90
2024-02-10T11:09:49.425Z,23.93
2024-02-10T11:12:15.853Z,23.93
2024-02-10T11:14:42.295Z,23.90
2024-02-10T11:17:08.755Z,23.86
2024-02-10T11:19:35.245Z,23.83
2024-02-10T11:22:01.761Z,23.84
2024-02-10T11:24:28.177Z,23.77
2024-02-10T11:26:54.618Z,23.74
2024-02-10T11:29:21.042Z,23.71
2024-02-10T11:31:47.477Z,23.70
2024-02-10T11:34:14.018Z,23.70
2024-02-10T11:36:40.486Z,23.73
2024-02-10T11:39:06.901Z,23.67
2024-02-10T11:41:33.333Z,23.66
2024-02-10T11:43:59.819Z,23.65
2024-02-10T11:46:26.330Z,23.65
2024-02-10T11:48:52.807Z,23.63
2024-02-10T11:51:19.274Z,23.64
2024-02-10T11:53:45.670Z,23.64
2024-02-10T11:56:12.286Z,23.63
2024-02-10T11:58:38.783Z,23.63
2024-02-10T12:01:05.322Z,23.62
2024-02-10T12:05:58.350Z,23.60
2024-02-10T12:08:24.860Z,23.60
2024-02-10T12:10:51.340Z,23.59
2024-02-10T12:13:17.764Z,23.58
2024-02-10T12:15:44.175Z,23.59
2024-02-10T12:18:11.426Z,23.57
2024-02-10T12:20:38.681Z,23.56
2024-02-10T12:23:05.178Z,23.56
2024-02-10T12:25:31.734Z,23.55
2024-02-10T12:27:58.215Z,23.56
2024-02-10T12:30:24.649Z,23.55
2024-02-10T12:32:51.124Z,23.54
2024-02-10T12:35:17.595Z,23.54
2024-02-10T12:37:44.092Z,23.54
2024-02-10T12:40:10.525Z,23.58
2024-02-10T12:42:36.956Z,23.54
2024-02-10T12:45:03.417Z,23.54
2024-02-10T12:47:29.886Z,23.53
2024-02-10T12:49:56.518Z,23.54
2024-02-10T12:52:22.988Z,23.54
2024-02-10T12:54:49.447Z,23.56
2024-02-10T12:57:15.860Z,23.58
2024-02-10T12:59:42.274Z,23.58
2024-02-10T13:02:08.737Z,23.60
2024-02-10T13:04:35.336Z,23.59
2024-02-10T13:07:01.851Z,23.52
2024-02-10T13:09:28.267Z,23.50
2024-02-10T13:11:54.915Z,23.49
2024-02-10T13:14:21.382Z,23.48
2024-02-10T13:16:47.901Z,23.48
2024-02-10T13:19:14.407Z,23.47
2024-02-10T13:21:40.870Z,23.48
2024-02-10T13:24:07.301Z,23.50
2024-02-10T13:26:33.716Z,23.48
2024-02-10T13:29:00.215Z,23.47
2024-02-10T13:31:26.715Z,23.46
2024-02-10T13:33:53.326Z,23.51
2024-02-10T13:36:19.934Z,23.50
2024-02-10T13:38:46.390Z,23.45
2024-02-10T13:41:12.842Z,23.48
2024-02-10T13:43:39.368Z,23.48
2024-02-10T13:46:05.830Z,23.41
2024-02-10T13:48:32.334Z,23.38
2024-02-10T13:50:58.791Z,23.42
2024-02-10T13:53:25.188Z,23.42
2024-02-10T13:55:51.641Z,23.35
2024-02-10T13:58:18.087Z,23.33
2024-02-10T14:00:44.600Z,23.36
2024-02-10T14:03:11.049Z,23.36
2024-02-10T14:05:37.564Z,23.35
2024-02-10T14:08:04.065Z,23.33
2024-02-10T14:10:30.542Z,23.32
2024-02-10T14:12:56.979Z,23.31
2024-02-10T14:15:23.403Z,23.28
2024-02-10T14:17:49.858Z,23.27
2024-02-10T14:20:16.287Z,23.26
2024-02-10T14:22:42.745Z,23.19
2024-02-10T14:25:09.214Z,23.14
2024-02-10T14:27:35.641Z,23.10
2024-02-10T14:30:02.063Z,23.09
2024-02-10T14:32:28.500Z,23.06
2024-02-10T14:34:55.039Z,23.06
2024-02-10T14:37:21.557Z,23.01
2024-02-10T14:39:48.034Z,22.99
2024-02-10T14:42:14.467Z,22.97
2024-02-10T14:44:40.861Z,22.94
2024-02-10T14:47:07.406Z,22.90
2024-02-10T14:49:33.975Z,22.88
2024-02-10T14:52:00.474Z,22.87
2024-02-10T14:54:26.931Z,22.85
2024-02-10T14:56:53.342Z,22.82
2024-02-10T14:59:19.755Z,22.80
2024-02-10T15:01:46.244Z,22.78
2024-02-10T15:04:12.741Z,22.82
2024-02-10T15:06:39.172Z,22.74
2024-02-10T15:09:05.637Z,22.70
2024-02-10T15:11:32.064Z,22.67
2024-02-10T15:13:58.466Z,22.67
2024-02-10T15:16:25.012Z,22.61
2024-02-10T15:18:51.605Z,22.56
2024-02-10T15:21:18.063Z,22.54
2024-02-10T15:23:44.521Z,22.50
2024-02-10T15:26:10.967Z,22.48
2024-02-10T15:28:37.424Z,22.43
2024-02-10T15:31:03.887Z,22.38
2024-02-10T15:33:30.381Z,22.33
2024-02-10T15:35:56.829Z,22.32
2024-02-10T15:38:23.244Z,22.29
2024-02-10T15:40:49.713Z,22.25
2024-02-10T15:43:16.192Z,22.22
2024-02-10T15:45:42.603Z,22.19
2024-02-10T15:48:09.054Z,22.15
2024-02-10T15:50:35.594Z,22.11
2024-02-10T15:53:02.046Z,22.06
2024-02-10T15:55:28.515Z,22.00
2024-02-10T15:57:54.930Z,21.96
2024-02-10T16:00:21.361Z,21.90
2024-02-10T16:02:47.788Z,21.86
2024-02-10T16:05:14.382Z,21.79
2024-02-10T16:07:40.870Z,21.75
2024-02-10T16:10:07.314Z,21.71
2024-02-10T16:12:33.746Z,21.67
2024-02-10T16:15:00.187Z,21.63
2024-02-10T16:17:26.649Z,21.60
2024-02-10T16:19:53.136Z,21.57
2024-02-10T16:22:19.624Z,21.54
2024-02-10T16:24:46.056Z,21.50
2024-02-10T16:27:12.525Z,21.48
2024-02-10T16:29:38.981Z,21.43
2024-02-10T16:32:05.444Z,21.40
2024-02-10T16:34:31.980Z,21.35
2024-02-10T16:36:58.427Z,21.31
2024-02-10T16:39:24.859Z,21.27
2024-02-10T16:41:51.319Z,21.23
2024-02-10T16:44:17.819Z,21.18
2024-02-10T16:46:44.269Z,21.14
2024-02-10T16:49:10.767Z,21.10
2024-02-10T16:51:37.211Z,21.07
2024-02-10T16:54:03.673Z,21.01
2024-02-10T16:56:30.109Z,20.96
2024-02-10T16:58:56.572Z,20.92
2024-02-10T17:01:23.085Z,20.89
2024-02-10T17:03:49.584Z,20.86
2024-02-10T17:06:16.435Z,20.82
2024-02-10T17:08:43.025Z,20.80
2024-02-10T17:11:09.545Z,20.75
2024-02-10T17:13:36.038Z,20.70
2024-02-10T17:16:02.485Z,20.66
2024-02-10T17:18:29.112Z,20.64
2024-02-10T17:20:55.580Z,20.58
2024-02-10T17:23:22.001Z,20.55
2024-02-10T17:25:48.508Z,20.51
2024-02-10T17:28:14.949Z,20.47
2024-02-10T17:30:41.385Z,20.42
2024-02-10T17:33:07.865Z,20.37
2024-02-10T17:35:34.430Z,20.33
2024-02-10T17:38:01.023Z,20.28
2024-02-10T17:40:27.488Z,20.24
2024-02-10T17:42:53.915Z,20.19
2024-02-10T17:45:20.364Z,20.17
2024-02-10T17:47:47.425Z,20.14
2024-02-10T17:50:14.700Z,20.11
2024-02-10T17:52:41.362Z,20.06
2024-02-10T17:55:07.778Z,20.04
2024-02-10T17:57:34.185Z,20.00
2024-02-10T18:00:00.687Z,19.97
2024-02-10T18:02:27.138Z,19.92
2024-02-10T18:04:53.624Z,19.90
2024-02-10T18:07:20.117Z,19.85
2024-02-10T18:09:46.562Z,19.80
2024-02-10T18:12:12.983Z,19.75
2024-02-10T18:14:39.472Z,19.70
2024-02-10T18:17:05.937Z,19.66
2024-02-10T18:19:32.500Z,19.63
2024-02-10T18:21:58.968Z,19.60
2024-02-10T18:24:25.386Z,19.55
2024-02-10T18:26:51.916Z,19.52
2024-02-10T18:29:18.472Z,19.48
2024-02-10T18:31:44.932Z,19.44
2024-02-10T18:34:11.467Z,19.41
2024-02-10T18:36:37.930Z,19.38
2024-02-10T18:39:04.356Z,19.16
2024-02-10T18:41:30.823Z,19.30
2024-02-10T18:43:58.594Z,19.28
2024-02-10T18:46:26.278Z,19.26
2024-02-10T18:48:52.847Z,19.20
2024-02-10T18:51:19.301Z,19.17
2024-02-10T18:53:45.765Z,19.13
2024-02-10T18:56:12.260Z,19.08
2024-02-10T18:58:38.765Z,19.05
2024-02-10T19:01:05.255Z,19.01
2024-02-10T19:03:31.734Z,18.99
2024-02-10T19:05:58.238Z,18.95
2024-02-10T19:08:24.706Z,18.92
2024-02-10T19:10:51.149Z,18.88
2024-02-10T19:13:17.611Z,18.83
2024-02-10T19:15:44.048Z,18.81
2024-02-10T19:18:10.533Z,18.78
2024-02-10T19:20:36.982Z,18.76
2024-02-10T19:23:03.431Z,18.72
2024-02-10T19:25:29.869Z,18.69
2024-02-10T19:27:56.321Z,18.65
2024-02-10T19:30:22.743Z,18.62
2024-02-10T19:32:49.198Z,18.58
2024-02-10T19:35:16.265Z,18.55
2024-02-10T19:37:43.265Z,18.53
2024-02-10T19:40:09.793Z,18.49
2024-02-10T19:42:36.223Z,18.47
2024-02-10T19:45:02.686Z,18.41
2024-02-10T19:47:29.119Z,18.40
2024-02-10T19:49:55.595Z,18.34
2024-02-10T19:52:22.071Z,18.31
2024-02-10T19:54:48.479Z,18.27
2024-02-10T19:57:14.919Z,18.30
2024-02-10T19:59:41.381Z,18.22
2024-02-10T20:02:07.837Z,18.20
2024-02-10T20:04:34.536Z,18.15
2024-02-10T20:07:01.115Z,18.13
2024-02-10T20:09:27.604Z,18.11
2024-02-10T20:11:54.110Z,18.07
2024-02-10T20:14:20.620Z,18.05
2024-02-10T20:16:47.111Z,18.02
2024-02-10T20:19:13.630Z,17.99
2024-02-10T20:21:40.058Z,17.96
2024-02-10T20:24:06.501Z,17.96
2024-02-10T20:26:32.933Z,17.96
2024-02-10T20:28:59.441Z,17.98
2024-02-10T20:31:25.874Z,18.00
2024-02-10T20:33:52.535Z,18.03
2024-02-10T20:36:19.108Z,18.05
2024-02-10T20:38:45.508Z,18.08
2024-02-10T20:41:12.077Z,18.11
2024-02-10T20:43:38.674Z,18.14
2024-02-10T20:46:05.109Z,18.16
2024-02-10T20:48:31.643Z,18.21
2024-02-10T20:50:58.171Z,18.05
2024-02-10T20:53:24.570Z,18.28
2024-02-10T20:55:51.034Z,18.34
2024-02-10T20:58:17.469Z,18.44
2024-02-10T21:00:43.916Z,18.53
2024-02-10T21:03:10.379Z,18.61
2024-02-10T21:05:36.988Z,18.71
2024-02-10T21:08:03.484Z,18.83
2024-02-10T21:10:29.939Z,18.95
2024-02-10T21:12:56.392Z,19.05
2024-02-10T21:15:22.833Z,19.16
2024-02-10T21:17:49.341Z,19.26
2024-02-10T21:20:16.775Z,19.37
2024-02-10T21:22:43.817Z,19.48
2024-02-10T21:25:10.227Z,19.57
2024-02-10T21:27:36.629Z,19.64
2024-02-10T21:30:03.075Z,19.75
2024-02-10T21:32:29.602Z,19.85
2024-02-10T21:34:56.092Z,19.98
2024-02-10T21:37:22.569Z,20.07
2024-02-10T21:39:48.997Z,19.99
2024-02-10T21:42:15.418Z,20.02
2024-02-10T21:44:41.878Z,20.06
2024-02-10T21:47:08.315Z,20.08
2024-02-10T21:49:34.782Z,20.11
2024-02-10T21:52:01.215Z,20.13
2024-02-10T21:54:27.665Z,20.21
2024-02-10T21:56:54.139Z,20.18
2024-02-10T21:59:20.699Z,20.28
2024-02-10T22:01:47.168Z,20.34
2024-02-10T22:04:13.667Z,20.37
2024-02-10T22:06:40.131Z,20.40
2024-02-10T22:09:06.573Z,20.43
2024-02-10T22:11:33.004Z,20.43
2024-02-10T22:13:59.684Z,20.36
2024-02-10T22:16:26.214Z,20.45
2024-02-10T22:18:52.657Z,20.53
2024-02-10T22:21:19.086Z,20.49
2024-02-10T22:23:45.514Z,20.49
2024-02-10T22:26:11.956Z,20.40
2024-02-10T22:28:38.423Z,20.59
2024-02-10T22:31:04.860Z,20.67
2024-02-10T22:33:31.330Z,20.66
2024-02-10T22:35:57.816Z,20.75
2024-02-10T22:38:24.228Z,20.80
2024-02-10T22:40:50.682Z,20.83
2024-02-10T22:43:17.282Z,20.85
2024-02-10T22:45:43.940Z,20.87
2024-02-10T22:48:10.464Z,20.89
2024-02-10T22:50:36.921Z,20.92
2024-02-10T22:53:03.377Z,20.95
2024-02-10T22:55:29.904Z,20.97
2024-02-10T22:57:56.305Z,21.01
2024-02-10T23:00:22.762Z,21.05
2024-02-10T23:02:49.283Z,21.08
2024-02-10T23:05:15.903Z,21.11
2024-02-10T23:07:42.497Z,21.13
2024-02-10T23:10:08.973Z,21.16
2024-02-10T23:12:35.403Z,21.18
2024-02-10T23:15:01.863Z,21.21
2024-02-10T23:17:28.322Z,21.22
2024-02-10T23:19:55.147Z,21.26
2024-02-10T23:22:22.086Z,21.26
2024-02-10T23:24:48.470Z,21.29
2024-02-10T23:27:14.882Z,21.30
2024-02-10T23:29:41.312Z,21.32
2024-02-10T23:32:07.846Z,21.35
2024-02-10T23:34:34.347Z,21.39
2024-02-10T23:37:00.799Z,21.42
2024-02-10T23:39:27.193Z,21.35
2024-02-10T23:41:53.619Z,21.38
2024-02-10T23:44:20.061Z,21.48
2024-02-10T23:46:46.536Z,21.50
2024-02-10T23:49:13.040Z,21.52
2024-02-10T23:51:39.465Z,21.54
2024-02-10T23:54:05.869Z,21.55
2024-02-10T23:56:32.327Z,21.58
2024-02-10T23:58:58.777Z,21.52
